Storm Lake, IA

11:26 PM CDT on April 29, 2017 (GMT -0500)
Storm Lake Municipal

Weather History for KSLB - September, 2011

Change the Weather History Date:

Sunday, September 4, 2011

  Actual Average Record
Temperature  
Mean Temperature 58 °F -  
Max Temperature 67 °F 78 °F 93 °F (2012)
Min Temperature 49 °F 57 °F 44 °F (2003)
Degree Days  
Heating Degree Days 7    
Growing Degree Days 8 (Base 50)    
Moisture  
Dew Point 46 °F    
Average Humidity 66    
Maximum Humidity 87    
Minimum Humidity 41    
Precipitation  
Precipitation 0.00 in - - ()
Sea Level Pressure  
Sea Level Pressure 30.17 in    
Wind  
Wind Speed 10 mph (NW)    
Max Wind Speed 21 mph    
Max Gust Speed 32 mph    
Visibility 10 miles    
Events      
Averages and records for this station are not official NWS values.
T = Trace of Precipitation, MM = Missing Value Source: NWS Daily Summary

Daily Weather History Graph

Daily Weather History Graph

Search for Another Location

Airport or City:

Trip Planner

Search our weather history database for the weather conditions in past years. The results will help you decide how hot, cold, wet, or windy it might be!

Date:

Astronomy

Sep. 04, 2011 Rise Set
Actual Time 6:48 AM CDT 7:50 PM CDT
Civil Twilight 6:19 AM CDT 8:19 PM CDT
Nautical Twilight 5:45 AM CDT 8:53 PM CDT
Astronomical Twilight 5:09 AM CDT 9:29 PM CDT
Moon 2:45 PM CDT (9/4) No Moon Set
Length of Visible Light 13h 59m
Length of Day
13h 01m
Waxing Crescent, 50% of the Moon is Illuminated
Sep 4
Waxing Crescent
Sep 4
First Quarter
Sep 12
Full
Sep 20
Last Quarter
Sep 27
New

Hourly Weather History & Observations

Time (CDT) Temp. Dew Point Humidity Pressure Visibility Wind Dir Wind Speed Gust Speed Precip Events Conditions
12:15 AM 54.7 °F 48.2 °F 79% 30.11 in 10.0 mi NW 9.2 mph - N/A   Clear
12:35 AM 54.0 °F 48.2 °F 81% 30.11 in 10.0 mi WNW 9.2 mph - N/A   Clear
12:55 AM 53.6 °F 48.0 °F 81% 30.11 in 10.0 mi WNW 9.2 mph - N/A   Clear
1:15 AM 52.9 °F 48.2 °F 84% 30.11 in 10.0 mi WNW 10.4 mph - N/A   Clear
1:35 AM 52.7 °F 48.0 °F 84% 30.11 in 10.0 mi WNW 10.4 mph - N/A   Clear
1:55 AM 52.2 °F 47.7 °F 85% 30.12 in 10.0 mi WNW 10.4 mph - N/A   Clear
2:15 AM 52.0 °F 47.5 °F 85% 30.12 in 10.0 mi WNW 10.4 mph - N/A   Clear
2:35 AM 51.8 °F 47.3 °F 85% 30.12 in 10.0 mi WNW 8.1 mph - N/A   Clear
2:55 AM 51.4 °F 47.3 °F 86% 30.12 in 10.0 mi WNW 8.1 mph - N/A   Clear
3:15 AM 51.1 °F 47.1 °F 86% 30.13 in 10.0 mi WNW 6.9 mph - N/A   Clear
3:35 AM 50.9 °F 46.9 °F 86% 30.12 in 10.0 mi WNW 9.2 mph - N/A   Clear
4:15 AM 50.9 °F 46.8 °F 86% 30.12 in 10.0 mi WNW 9.2 mph - N/A   Clear
4:35 AM 50.5 °F 46.6 °F 86% 30.12 in 10.0 mi WNW 8.1 mph - N/A   Clear
4:55 AM 50.2 °F 46.4 °F 87% 30.13 in 10.0 mi WNW 9.2 mph - N/A   Clear
5:15 AM 50.0 °F 46.4 °F 87% 30.13 in 10.0 mi WNW 8.1 mph - N/A   Clear
5:35 AM 50.0 °F 46.2 °F 87% 30.14 in 10.0 mi NW 10.4 mph - N/A   Clear
5:55 AM 50.0 °F 46.2 °F 87% 30.14 in 10.0 mi NW 8.1 mph - N/A   Clear
6:15 AM 50.0 °F 46.0 °F 86% 30.15 in 10.0 mi NW 8.1 mph - N/A   Clear
6:35 AM 50.0 °F 45.7 °F 85% 30.16 in 10.0 mi NW 8.1 mph - N/A   Clear
7:15 AM 49.3 °F 45.3 °F 86% 30.17 in 10.0 mi NW 6.9 mph - N/A   Clear
7:35 AM 50.2 °F 45.9 °F 85% 30.17 in 10.0 mi NW 8.1 mph - N/A   Clear
7:55 AM 51.3 °F 46.4 °F 83% 30.18 in 10.0 mi NW 8.1 mph - N/A   Clear
8:15 AM 52.5 °F 46.8 °F 81% 30.18 in 10.0 mi NW 6.9 mph - N/A   Clear
8:35 AM 53.6 °F 47.3 °F 79% 30.18 in 10.0 mi NW 8.1 mph - N/A   Clear
8:55 AM 54.9 °F 48.0 °F 78% 30.18 in 10.0 mi NW 6.9 mph - N/A   Clear
9:15 AM 56.7 °F 48.7 °F 75% 30.18 in 10.0 mi NW 8.1 mph - N/A   Clear
9:35 AM 58.3 °F 48.9 °F 71% 30.19 in 10.0 mi NW 9.2 mph - N/A   Clear
9:55 AM 59.7 °F 48.9 °F 67% 30.19 in 10.0 mi NW 9.2 mph - N/A   Clear
10:15 AM 61.2 °F 48.4 °F 63% 30.19 in 10.0 mi NW 9.2 mph 16.1 mph N/A   Clear
10:35 AM 62.1 °F 48.0 °F 60% 30.20 in 10.0 mi NNW 11.5 mph 18.4 mph N/A   Clear
10:55 AM 63.1 °F 46.9 °F 55% 30.20 in 10.0 mi NNW 16.1 mph 24.2 mph N/A   Clear
11:15 AM 64.0 °F 45.3 °F 51% 30.20 in 10.0 mi NNW 17.3 mph 20.7 mph N/A   Clear
11:35 AM 64.6 °F 45.3 °F 50% 30.20 in 10.0 mi NNW 15.0 mph 23.0 mph N/A   Clear
11:55 AM 65.3 °F 44.1 °F 46% 30.20 in 10.0 mi NNW 16.1 mph 24.2 mph N/A   Clear
12:15 PM 65.7 °F 42.3 °F 43% 30.20 in 10.0 mi NNW 19.6 mph 32.2 mph N/A   Clear
12:35 PM 65.8 °F 41.9 °F 42% 30.20 in 10.0 mi NNW 17.3 mph 27.6 mph N/A   Clear
12:55 PM 66.4 °F 43.9 °F 44% 30.19 in 10.0 mi NNW 17.3 mph 21.9 mph N/A   Scattered Clouds
1:15 PM 66.6 °F 44.1 °F 44% 30.19 in 10.0 mi North 16.1 mph 25.3 mph N/A   Scattered Clouds
1:35 PM 66.2 °F 44.2 °F 45% 30.19 in 10.0 mi NNW 16.1 mph 21.9 mph N/A   Mostly Cloudy
1:55 PM 66.7 °F 44.2 °F 44% 30.18 in 10.0 mi NNW 19.6 mph 25.3 mph N/A   Scattered Clouds
2:15 PM 67.3 °F 42.6 °F 41% 30.18 in 10.0 mi NNW 18.4 mph 21.9 mph N/A   Scattered Clouds
2:35 PM 67.5 °F 43.3 °F 42% 30.19 in 10.0 mi NNW 20.7 mph 25.3 mph N/A   Scattered Clouds
2:55 PM 66.6 °F 43.3 °F 43% 30.18 in 10.0 mi NW 17.3 mph 20.7 mph N/A   Mostly Cloudy
3:15 PM 66.2 °F 44.1 °F 45% 30.18 in 10.0 mi NNW 17.3 mph 21.9 mph N/A   Scattered Clouds
3:35 PM 66.6 °F 43.2 °F 43% 30.18 in 10.0 mi NNW 12.7 mph 23.0 mph N/A   Scattered Clouds
3:55 PM 66.6 °F 44.1 °F 44% 30.18 in 10.0 mi North 15.0 mph 19.6 mph N/A   Scattered Clouds
4:15 PM 66.7 °F 43.9 °F 44% 30.18 in 10.0 mi NNW 15.0 mph 24.2 mph N/A   Scattered Clouds
4:35 PM 67.8 °F 43.9 °F 42% 30.18 in 10.0 mi North 18.4 mph 23.0 mph N/A   Scattered Clouds
4:55 PM 65.8 °F 43.9 °F 45% 30.18 in 10.0 mi North 11.5 mph 19.6 mph N/A   Scattered Clouds
5:15 PM 64.9 °F 43.9 °F 46% 30.18 in 10.0 mi NNW 12.7 mph - N/A   Scattered Clouds
5:35 PM 65.1 °F 43.3 °F 45% 30.18 in 10.0 mi North 12.7 mph - N/A   Scattered Clouds
5:55 PM 65.5 °F 43.3 °F 45% 30.18 in 10.0 mi North 13.8 mph 20.7 mph N/A   Clear
6:15 PM 65.3 °F 43.0 °F 44% 30.18 in 10.0 mi NNW 10.4 mph - N/A   Scattered Clouds
6:35 PM 64.6 °F 44.1 °F 47% 30.19 in 10.0 mi North 12.7 mph - N/A   Scattered Clouds
7:15 PM 62.4 °F 44.4 °F 52% 30.19 in 10.0 mi North 10.4 mph 17.3 mph N/A   Clear
7:35 PM 60.6 °F 44.8 °F 56% 30.19 in 10.0 mi North 6.9 mph - N/A   Clear
7:55 PM 58.1 °F 44.8 °F 61% 30.20 in 10.0 mi North 5.8 mph - N/A   Clear
8:15 PM 54.9 °F 45.3 °F 70% 30.20 in 10.0 mi North 5.8 mph - N/A   Clear
8:35 PM 53.1 °F 45.5 °F 75% 30.21 in 10.0 mi NNW 5.8 mph - N/A   Clear
8:55 PM 52.2 °F 45.5 °F 78% 30.21 in 10.0 mi NNW 4.6 mph - N/A   Clear
9:15 PM 51.6 °F 45.0 °F 78% 30.21 in 10.0 mi North 6.9 mph - N/A   Clear
9:35 PM 50.9 °F 44.6 °F 79% 30.22 in 10.0 mi North 8.1 mph - N/A   Clear
9:55 PM 49.8 °F 44.2 °F 81% 30.22 in 10.0 mi North 8.1 mph - N/A   Clear
10:15 PM 49.3 °F 44.1 °F 82% 30.22 in 10.0 mi North 8.1 mph - N/A   Clear
10:35 PM 49.5 °F 44.2 °F 82% 30.22 in 10.0 mi North 8.1 mph - N/A   Clear
11:15 PM 49.3 °F 44.2 °F 83% 30.23 in 10.0 mi North 6.9 mph - N/A   Clear
11:35 PM 49.1 °F 44.1 °F 83% 30.23 in 10.0 mi North 6.9 mph - N/A   Clear
11:55 PM 49.1 °F 44.1 °F 83% 30.23 in 10.0 mi NNW 6.9 mph - N/A   Clear